Latest Weather Observations for Hobart

IDT60901

Issued at 6:31 am EST Thursday 16 August 2018 (issued every 10 minutes, with the page automatically refreshed every 10 minutes)

About weather observations | Map of Hobart area stations | Latest observations for Hobart area | Other Formats
Station Details ID: 094029 Name: HOBART (ELLERSLIE ROAD) Lat: -42.89 Lon: 147.33 Height: 50.5 m
Data from the previous 72 hours. | See also: Recent months at Hobart
Date/Time
EST
Temp
°C
App
Temp
°C
Dew
Point
°C
Rel
Hum
%
Delta-T
°C
Wind Press
QNH
hPa
Press
MSL
hPa
Rain since
9am
mm
Dir  Spd
km/h
Gust
km/h
Spd
kts
Gust
kts
16/06:30am 6.6 3.1 3.4 80 1.4 NNW 11 19 6 10 998.3 998.4 16.2
16/06:00am 7.1 1.5 3.5 78 1.5 W 22 48 12 26 998.7 998.8 15.6
16/05:55am 7.5 1.5 3.2 74 1.8 W 24 48 13 26 998.5 998.6 15.2
16/05:53am 7.5 1.5 3.2 74 1.8 W 24 48 13 26 998.2 998.3 15.2
16/05:30am 7.4 2.4 3.5 76 1.7 W 19 30 10 16 997.5 997.6 14.0
16/05:00am 8.0 2.2 2.5 68 2.3 W 22 35 12 19 997.4 997.5 13.8
16/04:30am 7.8 2.6 2.5 69 2.2 W 19 33 10 18 997.2 997.3 13.8
16/04:00am 8.9 4.2 0.9 57 3.3 SW 15 39 8 21 996.7 996.8 13.8
16/03:30am 8.9 4.0 1.8 61 2.9 WSW 17 26 9 14 996.4 996.5 13.8
16/03:00am 7.6 4.1 3.5 75 1.8 SW 11 28 6 15 996.3 996.4 13.8
16/02:30am 7.6 4.6 4.2 79 1.5 NE 9 17 5 9 996.7 996.8 13.8
16/02:00am 8.0 3.1 4.0 76 1.8 NNE 19 33 10 18 996.4 996.5 13.8
16/01:30am 7.4 1.7 4.7 83 1.2 NNE 24 35 13 19 995.5 995.5 13.8
16/01:00am 7.0 3.3 4.5 84 1.1 NNE 13 24 7 13 995.1 995.1 13.8
16/12:30am 7.6 3.7 3.6 76 1.7 WNW 13 22 7 12 994.7 994.7 13.8
16/12:00am 9.2 1.1 3.2 66 2.6 W 35 57 19 31 994.1 994.1 13.6
 
Date/Time
EST
Temp
°C
App
Temp
°C
Dew
Point
°C
Rel
Hum
%
Delta-T
°C
Wind Press
QNH
hPa
Press
MSL
hPa
Rain since
9am
mm
Dir  Spd
km/h
Gust
km/h
Spd
kts
Gust
kts
15/11:55pm 9.8 2.9 2.6 61 3.1 W 28 57 15 31 994.3 994.3 13.2
15/11:30pm 8.0 2.8 3.7 74 1.9 WNW 20 33 11 18 993.5 993.5 13.2
15/11:00pm 8.7 2.3 3.1 68 2.4 W 26 56 14 30 993.2 993.2 13.0
15/10:55pm 9.1 2.3 3.1 66 2.6 W 28 56 15 30 993.4 993.4 13.0
15/10:30pm 7.0 1.6 4.3 83 1.2 WNW 22 33 12 18 993.0 993.0 12.8
15/10:07pm 7.0 0.4 4.1 82 1.2 WNW 28 46 15 25 992.9 992.9 12.6
15/10:00pm 6.9 -0.1 3.9 81 1.3 W 30 46 16 25 992.6 992.6 12.6
15/09:30pm 6.9 -0.6 4.2 83 1.2 W 33 52 18 28 992.0 992.0 12.4
15/09:10pm 6.8 -0.2 4.1 83 1.2 WNW 30 50 16 27 992.0 992.0 11.8
15/09:00pm 6.9 -0.1 4.2 83 1.2 WNW 30 43 16 23 991.8 991.8 11.8
15/08:38pm 7.2 -0.7 4.3 82 1.3 WNW 35 56 19 30 991.7 991.7 11.0
15/08:30pm 7.2 -0.4 4.0 80 1.4 W 33 48 18 26 991.7 991.7 10.6
15/08:23pm 7.2 0.1 3.8 79 1.5 WNW 30 48 16 26 991.7 991.7 10.6
15/08:00pm 7.2 0.5 3.6 78 1.6 WNW 28 43 15 23 991.7 991.7 10.4
15/07:30pm 8.7 -1.0 2.7 66 2.5 WNW 43 67 23 36 991.8 991.8 9.6
15/07:00pm 8.4 1.5 2.4 66 2.5 WNW 28 52 15 28 990.6 990.6 9.6
15/06:47pm 8.2 1.3 2.4 67 2.4 WNW 28 50 15 27 990.6 990.6 9.6
15/06:30pm 8.6 0.8 2.6 66 2.5 WNW 33 46 18 25 990.5 990.5 9.6
15/06:22pm 8.3 1.4 2.8 68 2.3 WNW 28 46 15 25 990.7 990.7 9.6
15/06:00pm 8.0 2.0 3.3 72 2.0 W 24 44 13 24 990.7 990.7 9.6
15/05:35pm 7.8 0.4 3.8 76 1.7 WNW 32 50 17 27 990.9 990.9 9.6
15/05:30pm 7.7 -0.3 3.9 77 1.6 WNW 35 52 19 28 991.0 991.0 9.6
15/05:00pm 8.8 2.1 3.4 69 2.4 WNW 28 46 15 25 991.2 991.2 8.6
15/04:30pm 8.3 1.6 3.4 71 2.1 W 28 48 15 26 990.5 990.5 8.2
15/04:19pm 8.9 1.5 3.9 71 2.2 WNW 32 56 17 30 990.2 990.2 8.0
15/04:00pm 9.7 2.3 4.1 68 2.5 WNW 32 44 17 24 989.6 989.7 7.6
15/03:46pm 9.4 2.5 4.6 72 2.1 WNW 30 48 16 26 989.4 989.5 7.6
15/03:30pm 9.2 3.6 5.2 76 1.8 W 24 33 13 18 989.2 989.3 7.6
15/03:00pm 10.4 3.7 3.7 63 3.0 W 28 43 15 23 989.4 989.5 7.2
15/02:50pm 10.9 4.0 4.4 64 2.9 WNW 30 48 16 26 988.7 988.8 7.2
15/02:30pm 10.0 3.9 4.8 70 2.3 W 26 44 14 24 988.2 988.3 7.2
15/02:00pm 9.5 2.8 5.5 76 1.8 W 30 43 16 23 987.3 987.4 7.2
15/01:58pm 9.0 2.6 5.2 77 1.7 W 28 43 15 23 987.2 987.3 7.2
15/01:30pm 8.9 5.0 5.5 79 1.5 NW 15 24 8 13 987.9 988.0 7.0
15/01:00pm 9.9 6.8 5.7 75 2.0 W 11 20 6 11 987.5 987.6 6.4
15/12:30pm 9.7 3.4 5.9 77 1.7 WNW 28 43 15 23 986.8 986.9 6.2
15/12:00pm 8.8 1.4 5.0 77 1.7 WNW 33 56 18 30 986.6 986.7 5.2
15/11:30am 9.5 2.6 4.7 72 2.1 W 30 50 16 27 986.2 986.3 4.2
15/11:24am 9.3 2.4 4.5 72 2.1 W 30 50 16 27 986.2 986.3 3.8
15/11:00am 9.7 2.9 5.3 74 2.0 WNW 30 46 16 25 986.0 986.1 3.6
15/10:46am 8.3 1.5 4.9 79 1.5 W 30 48 16 26 986.1 986.2 3.6
15/10:30am 8.2 2.9 5.0 80 1.4 WNW 22 35 12 19 986.4 986.5 3.4
15/10:00am 8.6 3.1 5.7 82 1.3 WNW 24 39 13 21 986.0 986.1 2.0
15/09:30am 9.0 3.5 4.2 72 2.1 W 22 39 12 21 986.0 986.1 0.0
15/09:00am 8.6 -0.9 4.0 73 2.0 WNW 43 69 23 37 985.3 985.4 9.6
15/08:53am 8.3 -1.2 3.9 74 1.9 W 43 69 23 37 985.0 985.1 9.6
15/08:36am 8.3 1.6 3.8 73 1.9 WNW 28 50 15 27 985.3 985.4 9.4
15/08:30am 8.8 2.9 4.0 72 2.1 WNW 24 41 13 22 986.2 986.3 8.6
15/08:00am 9.0 3.2 4.2 72 2.1 W 24 37 13 20 985.1 985.2 7.6
15/07:30am 8.2 0.7 3.7 73 1.9 W 32 50 17 27 985.8 985.9 7.6
15/07:00am 8.8 1.3 4.2 73 2.0 W 33 54 18 29 986.7 986.8 6.6
15/06:48am 8.8 1.8 4.0 72 2.1 W 30 54 16 29 985.8 985.9 6.6
15/06:30am 9.9 3.5 3.2 63 2.9 W 26 43 14 23 986.2 986.3 6.0
15/06:16am 10.1 3.2 2.5 59 3.2 WNW 28 54 15 29 985.6 985.7 6.0
15/06:00am 9.3 4.5 4.5 72 2.2 WNW 19 30 10 16 985.9 986.0 6.0
15/05:30am 10.4 2.6 2.7 59 3.3 WNW 33 52 18 28 986.1 986.2 6.0
15/05:01am 9.8 2.7 3.5 65 2.7 WNW 30 48 16 26 986.2 986.3 6.0
15/05:00am 9.8 2.3 3.5 65 2.8 WNW 32 48 17 26 986.1 986.2 6.0
15/04:30am 9.9 0.3 3.4 64 2.8 W 43 70 23 38 986.5 986.6 6.0
15/04:00am 10.7 3.2 6.5 75 2.0 W 35 61 19 33 986.1 986.2 5.6
15/03:48am 11.1 1.8 7.6 79 1.7 WNW 46 85 25 46 986.1 986.2 4.2
15/03:30am 12.1 3.7 7.2 72 2.4 W 41 67 22 36 985.6 985.7 1.4
15/03:28am 12.2 4.1 7.1 71 2.5 W 39 67 21 36 985.4 985.5 1.2
15/03:00am 14.8 5.7 4.2 49 5.0 WNW 41 72 22 39 983.4 983.5 0.0
15/02:30am 15.0 5.4 3.2 45 5.3 WNW 43 63 23 34 984.5 984.6 0.0
15/02:00am 15.3 4.8 3.5 45 5.5 WNW 48 76 26 41 986.0 986.1 0.0
15/01:30am 15.9 6.0 2.7 41 6.0 WNW 44 82 24 44 987.1 987.2 0.0
15/01:00am 15.2 5.3 3.0 44 5.6 WNW 44 70 24 38 987.9 988.0 0.0
15/12:30am 15.1 5.9 3.3 45 5.4 WNW 41 63 22 34 988.5 988.6 0.0
15/12:00am 15.1 5.4 3.0 44 5.5 WNW 43 63 23 34 989.6 989.7 0.0
 
Date/Time
EST
Temp
°C
App
Temp
°C
Dew
Point
°C
Rel
Hum
%
Delta-T
°C
Wind Press
QNH
hPa
Press
MSL
hPa
Rain since
9am
mm
Dir  Spd
km/h
Gust
km/h
Spd
kts
Gust
kts
14/11:30pm 14.7 6.2 3.2 46 5.2 W 37 57 20 31 991.1 991.1 0.0
14/11:00pm 14.7 5.0 2.9 45 5.4 W 43 70 23 38 991.8 991.8 0.0
14/10:30pm 14.9 3.9 3.1 45 5.3 WNW 50 80 27 43 992.3 992.3 0.0
14/10:00pm 15.3 3.1 2.5 42 5.8 W 56 85 30 46 992.6 992.6 0.0
14/09:30pm 15.5 4.4 2.7 42 5.8 WNW 50 76 27 41 993.1 993.1 0.0
14/09:29pm 15.5 4.4 2.7 42 5.8 WNW 50 76 27 41 993.1 993.1 0.0
14/09:16pm 15.4 4.8 2.9 43 5.6 WNW 48 83 26 45 993.7 993.7 0.0
14/09:05pm 15.5 3.4 3.0 43 5.7 WNW 56 93 30 50 993.8 993.8 0.0
14/09:00pm 15.5 4.6 3.3 44 5.6 WNW 50 72 27 39 994.0 994.0 0.0
14/08:30pm 15.0 5.4 3.5 46 5.2 WNW 43 69 23 37 994.6 994.6 0.0
14/08:00pm 15.0 5.9 3.8 47 5.2 WNW 41 65 22 35 995.1 995.1 0.0
14/07:30pm 15.2 5.7 3.7 46 5.3 WNW 43 69 23 37 995.6 995.6 0.0
14/07:00pm 14.8 5.6 3.6 47 5.2 WNW 41 63 22 34 996.5 996.6 0.0
14/06:30pm 14.8 4.7 3.6 47 5.1 WNW 46 72 25 39 996.8 996.9 0.0
14/06:00pm 14.8 4.2 3.0 45 5.4 WNW 48 80 26 43 997.3 997.4 0.0
14/05:50pm 15.0 4.4 3.2 45 5.3 WNW 48 83 26 45 997.4 997.5 0.0
14/05:30pm 15.1 6.9 2.6 43 5.6 WNW 35 67 19 36 997.7 997.8 0.0
14/05:00pm 15.2 7.6 2.7 43 5.7 WNW 32 61 17 33 998.2 998.3 0.0
14/04:30pm 15.5 6.5 2.7 42 5.8 WNW 39 61 21 33 998.8 998.9 0.0
14/04:00pm 16.0 7.1 2.8 41 6.0 WNW 39 63 21 34 999.6 999.7 0.0
14/03:30pm 16.6 6.9 3.7 42 6.0 WNW 44 78 24 42 1000.3 1000.4 0.0
14/03:24pm 16.8 7.2 3.5 41 6.2 WNW 43 78 23 42 1000.5 1000.6 0.0
14/03:00pm 17.2 9.7 4.5 43 6.1 WNW 33 52 18 28 1001.0 1001.1 0.0
14/02:30pm 17.2 9.4 4.9 44 5.9 WNW 35 54 19 29 1001.6 1001.7 0.0
14/02:04pm 17.2 9.5 5.2 45 5.8 WNW 35 54 19 29 1001.8 1001.9 0.0
14/02:00pm 17.4 10.0 5.0 44 6.0 WNW 33 50 18 27 1001.9 1002.0 0.0
14/01:30pm 17.3 9.3 5.6 46 5.7 WNW 37 59 20 32 1002.2 1002.3 0.0
14/01:07pm 17.4 10.1 5.4 45 5.8 WNW 33 52 18 28 1002.9 1003.0 0.0
14/01:00pm 17.1 9.0 5.4 46 5.7 WNW 37 52 20 28 1003.0 1003.1 0.0
14/12:30pm 16.6 9.2 4.9 46 5.6 WNW 33 61 18 33 1003.6 1003.7 0.0
14/12:02pm 16.5 10.1 5.2 47 5.4 NW 28 48 15 26 1004.4 1004.5 0.0
14/12:00pm 16.4 10.4 5.1 47 5.4 NW 26 43 14 23 1004.4 1004.5 0.0
14/11:41am 15.8 9.4 5.1 49 5.1 NW 28 46 15 25 1005.0 1005.1 0.0
14/11:30am 15.4 10.5 5.0 50 4.9 NW 20 33 11 18 1005.3 1005.4 0.0
14/11:00am 14.8 10.1 5.1 52 4.6 NW 19 33 10 18 1006.1 1006.2 0.0
14/10:30am 14.4 10.4 5.0 53 4.4 N 15 24 8 13 1006.4 1006.5 0.0
14/10:00am 15.4 7.6 4.8 49 5.0 WNW 35 57 19 31 1006.7 1006.8 0.0
14/09:37am 14.0 7.5 4.6 53 4.4 WNW 28 48 15 26 1006.9 1007.0 0.0
14/09:36am 14.1 7.2 4.4 52 4.5 WNW 30 48 16 26 1006.9 1007.0 0.0
14/09:30am 14.1 7.2 4.7 53 4.4 WNW 30 56 16 30 1007.1 1007.2 0.0
14/09:15am 13.8 7.3 4.7 54 4.2 WNW 28 54 15 29 1007.3 1007.4 0.0
14/09:00am 13.6 8.6 4.5 54 4.2 NW 20 32 11 17 1007.5 1007.6 0.0
14/08:30am 13.3 8.4 4.2 54 4.2 NW 19 33 10 18 1007.8 1007.9 0.0
14/08:00am 13.4 9.3 4.6 55 4.1 N 15 24 8 13 1008.1 1008.2 0.0
14/07:31am 13.7 7.4 3.5 50 4.6 NW 26 52 14 28 1007.9 1008.0 0.0
14/07:30am 13.7 7.7 3.2 49 4.7 NW 24 52 13 28 1007.9 1008.0 0.0
14/07:00am 13.8 6.8 3.9 51 4.5 NW 30 54 16 29 1007.4 1007.5 0.0
14/06:49am 13.8 7.6 4.1 52 4.4 N 26 50 14 27 1007.1 1007.2 0.0
14/06:30am 14.0 8.6 4.3 52 4.5 NE 22 37 12 20 1007.2 1007.3 0.0
14/06:00am 14.5 10.5 4.8 52 4.5 ENE 15 24 8 13 1007.3 1007.4 0.0
14/05:45am 14.7 9.7 4.4 50 4.8 SW 20 57 11 31 1007.2 1007.3 0.0
14/05:30am 14.5 11.1 5.8 56 4.2 ESE 13 24 7 13 1007.4 1007.5 0.0
14/05:00am 14.3 10.1 5.7 56 4.1 WNW 17 30 9 16 1006.6 1006.7 0.0
14/04:35am 14.9 10.0 5.1 52 4.6 WNW 20 54 11 29 1006.7 1006.8 0.0
14/04:30am 14.7 9.8 5.2 53 4.5 W 20 61 11 33 1006.8 1006.9 0.0
14/04:17am 15.0 8.6 5.0 51 4.7 W 28 69 15 37 1006.5 1006.6 0.0
14/04:00am 14.8 9.1 5.1 52 4.6 W 24 50 13 27 1007.0 1007.1 0.0
14/03:30am 15.0 7.3 5.2 52 4.6 W 35 59 19 32 1006.7 1006.8 0.0
14/03:13am 14.9 8.7 6.0 55 4.3 W 28 59 15 32 1006.7 1006.8 0.0
14/03:00am 14.5 9.1 6.3 58 4.0 W 24 46 13 25 1006.8 1006.9 0.0
14/02:52am 14.7 9.3 6.3 57 4.1 WNW 24 52 13 28 1007.0 1007.1 0.0
14/02:30am 14.9 9.5 6.2 56 4.2 W 24 43 13 23 1007.2 1007.3 0.0
14/02:00am 14.6 7.7 6.4 58 4.0 W 32 61 17 33 1007.3 1007.4 0.0
14/01:48am 14.6 8.4 6.2 57 4.0 W 28 54 15 29 1007.4 1007.5 0.0
14/01:30am 12.9 7.8 7.6 70 2.6 WNW 24 35 13 19 1007.4 1007.5 0.0
14/01:00am 13.0 7.9 7.7 70 2.6 WNW 24 39 13 21 1007.2 1007.3 0.0
14/12:32am 13.2 7.3 7.6 69 2.7 WNW 28 48 15 26 1007.0 1007.1 0.0
14/12:30am 13.2 7.7 7.4 68 2.8 WNW 26 48 14 26 1006.9 1007.0 0.0
14/12:26am 13.3 7.4 7.3 67 2.9 WNW 28 48 15 26 1006.9 1007.0 0.0
14/12:00am 13.3 8.1 7.1 66 3.0 WNW 24 43 13 23 1007.3 1007.4 0.0
 
Date/Time
EST
Temp
°C
App
Temp
°C
Dew
Point
°C
Rel
Hum
%
Delta-T
°C
Wind Press
QNH
hPa
Press
MSL
hPa
Rain since
9am
mm
Dir  Spd
km/h
Gust
km/h
Spd
kts
Gust
kts
13/11:30pm 13.0 7.8 7.2 68 2.8 WNW 24 37 13 20 1007.0 1007.1 0.0
13/11:00pm 12.7 7.6 7.8 72 2.4 WNW 24 35 13 19 1006.9 1007.0 0.0
13/10:30pm 12.5 6.7 7.8 73 2.3 WNW 28 39 15 21 1006.6 1006.7 0.0
13/10:24pm 12.6 6.4 7.9 73 2.3 WNW 30 48 16 26 1007.0 1007.1 0.0
13/10:00pm 13.0 6.7 7.5 69 2.7 WNW 30 46 16 25 1006.7 1006.8 0.0
13/09:30pm 13.6 7.6 6.9 64 3.2 WNW 28 46 15 25 1006.6 1006.7 0.0
13/09:15pm 13.7 7.6 6.8 63 3.3 WNW 28 46 15 25 1006.3 1006.4 0.0
13/09:00pm 13.9 8.9 6.5 61 3.6 WNW 22 35 12 19 1006.6 1006.7 0.0
13/08:30pm 13.0 7.3 6.8 66 3.0 WNW 26 39 14 21 1006.2 1006.3 0.0
13/08:00pm 13.0 8.5 7.0 67 2.9 WNW 20 33 11 18 1006.7 1006.8 0.0
13/07:30pm 13.3 8.0 6.6 64 3.2 WNW 24 33 13 18 1006.5 1006.6 0.0
13/07:15pm 14.5 8.6 5.8 56 4.2 WNW 26 56 14 30 1006.5 1006.6 0.0
13/07:14pm 14.5 8.6 5.6 55 4.2 WNW 26 56 14 30 1006.3 1006.4 0.0
13/07:00pm 13.6 8.9 6.2 61 3.5 WNW 20 33 11 18 1006.6 1006.7 0.0
13/06:32pm 13.8 7.6 6.2 60 3.6 WNW 28 50 15 27 1006.1 1006.2 0.0
13/06:30pm 13.8 8.0 6.2 60 3.6 WNW 26 50 14 27 1006.1 1006.2 0.0
13/06:01pm 14.1 7.9 6.0 58 3.9 WNW 28 48 15 26 1005.7 1005.8 0.0
13/06:00pm 14.0 8.2 6.1 59 3.8 WNW 26 48 14 26 1005.6 1005.7 0.0
13/05:30pm 14.6 7.3 5.4 54 4.4 WNW 33 57 18 31 1005.2 1005.3 0.0
13/05:00pm 15.0 6.5 5.2 52 4.7 W 39 78 21 42 1005.0 1005.1 0.0
13/04:58pm 14.8 7.5 5.3 53 4.5 W 33 78 18 42 1005.1 1005.2 0.0
13/04:30pm 14.7 8.7 5.5 54 4.4 W 26 52 14 28 1005.3 1005.4 0.0
13/04:27pm 14.8 9.2 5.3 53 4.5 W 24 52 13 28 1005.4 1005.5 0.0
13/04:24pm 15.0 10.2 5.5 53 4.5 W 20 50 11 27 1005.2 1005.3 0.0
13/04:00pm 14.5 11.1 5.8 56 4.2 W 13 24 7 13 1005.4 1005.5 0.0
13/03:30pm 14.9 11.1 6.0 55 4.3 WNW 15 24 8 13 1005.6 1005.7 0.0
13/03:00pm 15.2 10.6 5.7 53 4.6 WNW 19 35 10 19 1006.1 1006.2 0.0
13/02:35pm 14.6 9.5 6.2 57 4.0 NW 22 48 12 26 1005.9 1006.0 0.0
13/02:34pm 14.5 9.3 5.6 55 4.2 NW 22 48 12 26 1005.8 1005.9 0.0
13/02:30pm 14.8 10.1 5.9 55 4.3 NW 20 43 11 23 1005.9 1006.0 0.0
13/02:00pm 15.0 8.8 6.3 56 4.2 WNW 28 52 15 28 1006.6 1006.7 0.0
13/01:58pm 14.8 8.7 6.4 57 4.1 WNW 28 52 15 28 1006.5 1006.6 0.0
13/01:30pm 15.0 9.5 6.0 55 4.3 WNW 24 37 13 20 1006.7 1006.8 0.0
13/01:00pm 14.0 8.9 6.1 59 3.8 NNW 22 32 12 17 1007.2 1007.3 0.0
13/12:30pm 12.8 8.1 6.2 64 3.1 NNW 20 32 11 17 1007.5 1007.6 0.0
13/12:00pm 12.4 7.3 6.0 65 3.0 NNW 22 41 12 22 1008.1 1008.2 0.0
13/11:30am 10.6 6.0 5.4 70 2.4 N 19 28 10 15 1008.9 1009.0 0.0
13/11:00am 10.3 4.9 4.7 68 2.5 N 22 30 12 16 1009.4 1009.5 0.0
13/10:30am 10.5 3.6 4.6 67 2.7 NNW 30 43 16 23 1009.9 1010.0 0.0
13/10:00am 11.1 5.3 4.3 63 3.1 NNW 24 37 13 20 1009.4 1009.5 0.0
13/09:30am 12.0 5.8 4.2 59 3.5 NW 26 43 14 23 1009.7 1009.8 0.0
13/09:01am 10.8 3.7 3.8 62 3.1 WNW 30 48 16 26 1009.9 1010.0 0.0
13/09:00am 10.8 3.4 3.8 62 3.1 WNW 32 48 17 26 1009.9 1010.0 4.6
13/08:30am 10.3 3.9 3.3 62 3.1 WNW 26 41 14 22 1009.6 1009.7 4.6
13/08:00am 9.6 3.1 2.9 63 2.9 WNW 26 41 14 22 1009.9 1010.0 4.6
13/07:30am 9.6 2.9 3.4 65 2.7 WNW 28 39 15 21 1010.0 1010.1 4.6
13/07:00am 9.8 3.8 3.3 64 2.8 NW 24 33 13 18 1010.4 1010.4 4.6

Latest Capital City Observations: Canberra | Sydney | Melbourne | Brisbane | Adelaide | Perth | Hobart | Darwin

Other Formats:

Comma delimited format used in spreadsheet applications
http://www.bom.gov.au/fwo/IDT60901/IDT60901.94970.axf

JavaScript Object Notation format (JSON) in row-major order
http://www.bom.gov.au/fwo/IDT60901/IDT60901.94970.json